createdAt,value
2023-03-12T00:00:51.284Z,56.90
2023-03-12T00:03:18.570Z,57.60
2023-03-12T00:05:46.554Z,57.02
2023-03-12T00:08:13.958Z,55.48
2023-03-12T00:10:41.601Z,54.80
2023-03-12T00:13:09.388Z,55.46
2023-03-12T00:15:40.363Z,56.09
2023-03-12T00:18:07.904Z,54.23
2023-03-12T00:20:35.301Z,55.24
2023-03-12T00:23:02.381Z,56.69
2023-03-12T00:25:29.314Z,54.40
2023-03-12T00:27:56.293Z,55.26
2023-03-12T00:30:23.156Z,54.87
2023-03-12T00:32:50.395Z,54.36
2023-03-12T00:35:17.336Z,54.19
2023-03-12T00:37:46.498Z,53.06
2023-03-12T00:40:13.774Z,53.98
2023-03-12T00:42:40.823Z,53.55
2023-03-12T00:45:08.599Z,52.51
2023-03-12T00:47:35.604Z,53.84
2023-03-12T00:50:02.595Z,52.59
2023-03-12T00:52:29.451Z,54.41
2023-03-12T00:54:59.045Z,53.75
2023-03-12T00:57:26.197Z,53.69
2023-03-12T00:59:53.094Z,53.81
2023-03-12T01:02:20.198Z,53.15
2023-03-12T01:04:47.058Z,53.11
2023-03-12T01:07:14.029Z,53.74
2023-03-12T01:09:41.026Z,54.82
2023-03-12T01:12:08.357Z,55.11
2023-03-12T01:14:35.270Z,54.13
2023-03-12T01:17:02.151Z,55.29
2023-03-12T01:19:32.430Z,54.35
2023-03-12T01:21:59.529Z,54.54
2023-03-12T01:24:26.490Z,53.94
2023-03-12T01:26:54.462Z,54.82
2023-03-12T01:29:21.487Z,55.98
2023-03-12T01:31:49.579Z,57.16
2023-03-12T01:34:16.371Z,54.72
2023-03-12T01:36:44.821Z,55.41
2023-03-12T01:39:11.678Z,54.73
2023-03-12T01:41:38.668Z,55.43
2023-03-12T01:44:05.828Z,55.55
2023-03-12T01:46:34.264Z,54.71
2023-03-12T01:49:14.763Z,55.32
2023-03-12T01:52:06.959Z,55.56
2023-03-12T01:54:54.863Z,55.91
2023-03-12T01:57:27.059Z,55.84
2023-03-12T02:00:00.483Z,56.20
2023-03-12T02:02:30.315Z,57.77
2023-03-12T02:05:26.025Z,58.63
2023-03-12T02:07:53.158Z,58.31
2023-03-12T02:10:20.342Z,57.63
2023-03-12T02:12:47.326Z,58.27
2023-03-12T02:15:14.572Z,57.71
2023-03-12T02:17:41.916Z,58.23
2023-03-12T02:20:42.424Z,58.99
2023-03-12T02:23:32.098Z,58.82
2023-03-12T02:26:00.375Z,59.01
2023-03-12T02:28:29.446Z,58.71
2023-03-12T02:31:03.707Z,57.18
2023-03-12T02:33:35.064Z,55.70
2023-03-12T02:36:01.992Z,57.14
2023-03-12T02:38:36.919Z,57.15
2023-03-12T02:41:15.202Z,56.58
2023-03-12T02:43:49.527Z,56.74
2023-03-12T02:46:17.004Z,57.70
2023-03-12T02:48:44.589Z,59.05
2023-03-12T02:51:11.615Z,59.04
2023-03-12T02:53:39.112Z,59.65
2023-03-12T02:56:06.831Z,61.20
2023-03-12T02:58:34.385Z,60.85
2023-03-12T03:01:01.255Z,61.49
2023-03-12T03:03:28.367Z,60.78
2023-03-12T03:05:55.844Z,60.84
2023-03-12T03:08:22.819Z,61.33
2023-03-12T03:10:52.091Z,61.16
2023-03-12T03:13:19.031Z,60.28
2023-03-12T03:15:46.110Z,60.71
2023-03-12T03:18:13.077Z,60.66
2023-03-12T03:20:40.076Z,61.58
2023-03-12T03:23:07.016Z,60.85
2023-03-12T03:25:53.127Z,59.44
2023-03-12T03:28:39.032Z,60.67
2023-03-12T03:31:07.239Z,58.88
2023-03-12T03:33:36.561Z,58.38
2023-03-12T03:36:04.784Z,57.83
2023-03-12T03:38:33.159Z,57.80
2023-03-12T03:40:59.976Z,59.21
2023-03-12T03:43:27.817Z,59.07
2023-03-12T03:45:59.699Z,59.68
2023-03-12T03:48:26.991Z,59.98
2023-03-12T03:50:54.778Z,60.28
2023-03-12T03:53:21.943Z,59.96
2023-03-12T03:55:48.919Z,60.88
2023-03-12T03:58:15.841Z,60.49
2023-03-12T04:00:45.995Z,60.90
2023-03-12T04:03:14.558Z,60.21
2023-03-12T04:05:45.378Z,61.12
2023-03-12T04:08:13.871Z,60.51
2023-03-12T04:10:41.412Z,60.07
2023-03-12T04:13:08.422Z,60.32
2023-03-12T04:15:35.365Z,61.06
2023-03-12T04:18:02.441Z,61.30
2023-03-12T04:20:29.937Z,61.50
2023-03-12T04:22:58.685Z,60.24
2023-03-12T04:25:25.576Z,61.10
2023-03-12T04:27:52.485Z,60.98
2023-03-12T04:30:19.490Z,60.68
2023-03-12T04:32:46.476Z,60.48
2023-03-12T04:35:13.514Z,61.71
2023-03-12T04:37:40.579Z,61.29
2023-03-12T04:40:09.929Z,61.32
2023-03-12T04:42:37.658Z,60.66
2023-03-12T04:45:06.689Z,60.34
2023-03-12T04:47:34.719Z,60.81
2023-03-12T04:50:01.609Z,61.60
2023-03-12T04:52:29.059Z,60.40
2023-03-12T04:55:14.661Z,59.52
2023-03-12T04:57:41.818Z,59.68
2023-03-12T05:00:28.553Z,58.76
2023-03-12T05:02:56.593Z,58.68
2023-03-12T05:05:23.767Z,58.08
2023-03-12T05:07:50.624Z,59.34
2023-03-12T05:10:18.100Z,60.01
2023-03-12T05:12:45.399Z,60.80
2023-03-12T05:15:12.422Z,60.51
2023-03-12T05:17:39.462Z,60.17
2023-03-12T05:20:07.692Z,60.02
2023-03-12T05:22:34.651Z,60.67
2023-03-12T05:25:02.311Z,62.87
2023-03-12T05:27:31.826Z,60.63
2023-03-12T05:30:06.482Z,59.91
2023-03-12T05:32:33.744Z,59.09
2023-03-12T05:35:00.841Z,56.68
2023-03-12T05:37:27.954Z,53.07
2023-03-12T05:39:55.495Z,51.70
2023-03-12T05:42:25.401Z,50.71
2023-03-12T05:44:53.023Z,48.12
2023-03-12T05:47:20.080Z,47.88
2023-03-12T05:49:48.492Z,45.63
2023-03-12T05:52:16.997Z,43.59
2023-03-12T05:54:43.883Z,43.12
2023-03-12T05:57:10.680Z,42.24
2023-03-12T05:59:37.678Z,41.84
2023-03-12T06:02:06.366Z,40.79
2023-03-12T06:04:33.455Z,40.20
2023-03-12T06:07:00.342Z,38.65
2023-03-12T06:09:28.590Z,38.09
2023-03-12T06:11:55.441Z,37.93
2023-03-12T06:14:22.297Z,37.50
2023-03-12T06:16:49.149Z,35.60
2023-03-12T06:19:16.033Z,35.17
2023-03-12T06:21:43.602Z,35.54
2023-03-12T06:24:10.548Z,34.73
2023-03-12T06:26:37.424Z,33.98
2023-03-12T06:29:04.286Z,33.21
2023-03-12T06:31:32.208Z,32.11
2023-03-12T06:33:59.121Z,32.75
2023-03-12T06:36:28.722Z,33.12
2023-03-12T06:38:57.186Z,31.50
2023-03-12T06:41:24.312Z,32.40
2023-03-12T06:43:52.484Z,31.85
2023-03-12T06:46:25.811Z,30.86
2023-03-12T06:48:53.012Z,31.18
2023-03-12T06:51:19.853Z,31.46
2023-03-12T06:53:47.454Z,29.88
2023-03-12T06:56:16.589Z,31.34
2023-03-12T06:58:43.461Z,31.58
2023-03-12T07:01:12.724Z,31.71
2023-03-12T07:03:39.778Z,31.65
2023-03-12T07:06:14.268Z,31.09
2023-03-12T07:08:41.337Z,31.17
2023-03-12T07:11:08.363Z,32.37
2023-03-12T07:13:35.560Z,30.97
2023-03-12T07:16:04.580Z,31.85
2023-03-12T07:18:31.630Z,31.76
2023-03-12T07:20:59.129Z,34.04
2023-03-12T07:23:44.669Z,31.42
2023-03-12T07:26:11.852Z,31.62
2023-03-12T07:28:38.769Z,31.64
2023-03-12T07:31:06.814Z,30.81
2023-03-12T07:33:34.218Z,31.34
2023-03-12T07:36:01.783Z,30.38
2023-03-12T07:38:29.313Z,31.49
2023-03-12T07:40:58.468Z,32.29
2023-03-12T07:43:25.741Z,31.19
2023-03-12T07:45:53.066Z,32.74
2023-03-12T07:48:20.433Z,31.98
2023-03-12T07:50:48.594Z,31.70
2023-03-12T07:53:18.362Z,31.15
2023-03-12T07:55:48.056Z,32.00
2023-03-12T07:58:16.983Z,30.94
2023-03-12T08:00:44.510Z,31.32
2023-03-12T08:03:12.153Z,32.05
2023-03-12T08:05:39.514Z,33.54
2023-03-12T08:08:06.962Z,31.22
2023-03-12T08:10:34.217Z,31.22
2023-03-12T08:13:01.309Z,31.27
2023-03-12T08:15:28.670Z,30.40
2023-03-12T08:17:55.742Z,29.24
2023-03-12T08:20:22.630Z,30.34
2023-03-12T08:22:50.020Z,29.33
2023-03-12T08:25:18.823Z,30.30
2023-03-12T08:27:45.865Z,30.58
2023-03-12T08:30:13.295Z,29.25
2023-03-12T08:32:59.408Z,30.05
2023-03-12T08:35:26.609Z,30.45
2023-03-12T08:37:53.552Z,29.72
2023-03-12T08:40:23.628Z,28.75
2023-03-12T08:42:50.765Z,33.09
2023-03-12T08:45:18.002Z,30.81
2023-03-12T08:47:46.328Z,29.19
2023-03-12T08:50:19.741Z,28.82
2023-03-12T08:52:46.988Z,28.15
2023-03-12T08:55:13.951Z,27.99
2023-03-12T08:57:41.587Z,29.44
2023-03-12T09:00:15.118Z,28.67
2023-03-12T09:02:46.160Z,28.59
2023-03-12T09:05:13.938Z,28.10
2023-03-12T09:07:42.115Z,28.52
2023-03-12T09:10:09.965Z,29.30
2023-03-12T09:12:37.074Z,28.62
2023-03-12T09:15:05.222Z,28.10
2023-03-12T09:17:32.709Z,28.51
2023-03-12T09:20:04.510Z,28.70
2023-03-12T09:22:31.559Z,28.94
2023-03-12T09:25:00.296Z,29.62
2023-03-12T09:27:27.347Z,29.62
2023-03-12T09:30:00.685Z,29.39
2023-03-12T09:32:29.835Z,30.48
2023-03-12T09:34:56.896Z,31.66
2023-03-12T09:37:24.548Z,30.52
2023-03-12T09:39:52.579Z,29.87
2023-03-12T09:42:33.583Z,30.33
2023-03-12T09:45:04.914Z,29.30
2023-03-12T09:47:47.834Z,28.14
2023-03-12T09:50:22.153Z,28.36
2023-03-12T09:52:55.909Z,30.64
2023-03-12T09:55:25.015Z,29.51
2023-03-12T09:57:53.330Z,30.04
2023-03-12T10:00:23.628Z,29.78
2023-03-12T10:02:59.114Z,30.25
2023-03-12T10:05:51.111Z,29.52
2023-03-12T10:08:41.657Z,29.43
2023-03-12T10:11:46.585Z,32.75
2023-03-12T10:14:44.387Z,30.61
2023-03-12T10:17:43.820Z,29.02
2023-03-12T10:20:47.304Z,30.39
2023-03-12T10:23:21.798Z,29.36
2023-03-12T10:26:05.685Z,30.82
2023-03-12T10:28:37.904Z,29.02
2023-03-12T10:31:19.184Z,31.13
2023-03-12T10:33:59.806Z,31.06
2023-03-12T10:36:35.196Z,28.91
2023-03-12T10:39:02.355Z,30.08
2023-03-12T10:41:34.656Z,31.00
2023-03-12T10:44:08.035Z,30.99
2023-03-12T10:46:37.872Z,30.61
2023-03-12T10:49:23.202Z,30.23
2023-03-12T10:52:05.349Z,30.19
2023-03-12T10:54:40.958Z,30.71
2023-03-12T10:57:08.719Z,29.23
2023-03-12T10:59:38.972Z,29.67
2023-03-12T11:02:37.810Z,30.96
2023-03-12T11:05:23.007Z,28.95
2023-03-12T11:07:50.581Z,29.59
2023-03-12T11:10:19.447Z,31.00
2023-03-12T11:13:21.271Z,30.48
2023-03-12T11:15:48.554Z,30.17
2023-03-12T11:18:25.344Z,32.73
2023-03-12T11:21:00.712Z,32.15
2023-03-12T11:23:30.594Z,32.75
2023-03-12T11:26:19.554Z,31.15
2023-03-12T11:28:51.118Z,32.67
2023-03-12T11:31:34.972Z,30.90
2023-03-12T11:34:08.264Z,30.42
2023-03-12T11:36:34.964Z,30.50
2023-03-12T11:39:10.909Z,31.02
2023-03-12T11:41:59.566Z,28.91
2023-03-12T11:44:35.607Z,29.80
2023-03-12T11:47:46.267Z,32.44
2023-03-12T11:50:25.836Z,32.96
2023-03-12T11:53:01.745Z,31.57
2023-03-12T11:55:57.174Z,33.25
2023-03-12T11:58:54.468Z,31.46
2023-03-12T12:01:24.197Z,33.07
2023-03-12T12:04:00.156Z,31.89
2023-03-12T12:06:48.290Z,33.40
2023-03-12T12:09:36.595Z,30.61
2023-03-12T12:12:27.656Z,32.61
2023-03-12T12:15:14.986Z,30.74
2023-03-12T12:18:02.572Z,32.22
2023-03-12T12:20:46.924Z,32.48
2023-03-12T12:23:26.806Z,34.12
2023-03-12T12:26:03.301Z,33.61
2023-03-12T12:28:46.327Z,32.34
2023-03-12T12:31:24.955Z,31.55
2023-03-12T12:34:27.126Z,30.43
2023-03-12T12:37:07.351Z,33.14
2023-03-12T12:39:41.565Z,33.02
2023-03-12T12:42:15.385Z,31.36
2023-03-12T12:44:51.457Z,32.85
2023-03-12T12:47:37.616Z,32.87
2023-03-12T12:50:04.881Z,32.14
2023-03-12T12:52:32.438Z,33.21
2023-03-12T12:55:20.788Z,34.43
2023-03-12T12:58:02.126Z,33.16
2023-03-12T13:00:47.715Z,36.54
2023-03-12T13:03:23.865Z,32.42
2023-03-12T13:06:05.656Z,32.09
2023-03-12T13:08:44.357Z,37.46
2023-03-12T13:11:20.659Z,33.71
2023-03-12T13:14:03.048Z,34.70
2023-03-12T13:16:34.801Z,32.90
2023-03-12T13:19:28.375Z,33.54
2023-03-12T13:22:27.982Z,33.13
2023-03-12T13:25:22.089Z,33.69
2023-03-12T13:27:59.012Z,35.41
2023-03-12T13:30:35.224Z,34.78
2023-03-12T13:33:02.214Z,34.99
2023-03-12T13:35:37.594Z,35.45
2023-03-12T13:38:07.263Z,35.92
2023-03-12T13:40:55.979Z,35.44
2023-03-12T13:43:32.188Z,33.47
2023-03-12T13:46:26.974Z,33.75
2023-03-12T13:49:00.582Z,33.45
2023-03-12T13:51:28.507Z,34.71
2023-03-12T13:54:01.764Z,34.79
2023-03-12T13:56:33.232Z,33.85
2023-03-12T13:59:04.020Z,34.28
2023-03-12T14:01:51.103Z,34.77
2023-03-12T14:04:21.002Z,34.40
2023-03-12T14:07:08.390Z,35.26
2023-03-12T14:09:41.041Z,35.53
2023-03-12T14:12:23.366Z,35.84
2023-03-12T14:15:26.230Z,35.17
2023-03-12T14:18:01.777Z,36.74
2023-03-12T14:20:30.227Z,35.13
2023-03-12T14:23:04.591Z,34.52
2023-03-12T14:25:38.449Z,36.55
2023-03-12T14:28:22.263Z,35.08
2023-03-12T14:30:58.980Z,35.58
2023-03-12T14:33:32.246Z,35.10
2023-03-12T14:36:17.116Z,34.93
2023-03-12T14:38:46.315Z,35.23
2023-03-12T14:41:19.131Z,36.91
2023-03-12T14:43:46.760Z,35.82
2023-03-12T14:46:19.409Z,34.64
2023-03-12T14:48:49.681Z,34.81
2023-03-12T14:51:28.637Z,34.92
2023-03-12T14:53:56.683Z,37.12
2023-03-12T14:56:45.103Z,36.59
2023-03-12T14:59:29.405Z,37.44
2023-03-12T15:02:01.572Z,36.75
2023-03-12T15:04:30.261Z,36.06
2023-03-12T15:07:01.775Z,37.18
2023-03-12T15:09:31.461Z,36.61
2023-03-12T15:12:04.691Z,38.07
2023-03-12T15:14:38.082Z,37.79
2023-03-12T15:17:07.236Z,36.07
2023-03-12T15:19:40.424Z,36.60
2023-03-12T15:22:12.085Z,36.63
2023-03-12T15:24:40.892Z,37.37
2023-03-12T15:27:26.029Z,38.09
2023-03-12T15:29:53.125Z,37.26
2023-03-12T15:32:24.990Z,37.63
2023-03-12T15:34:54.053Z,38.95
2023-03-12T15:37:38.179Z,39.21
2023-03-12T15:40:18.205Z,39.09
2023-03-12T15:42:47.239Z,40.41
2023-03-12T15:45:35.302Z,39.23
2023-03-12T15:48:04.720Z,39.43
2023-03-12T15:50:37.962Z,40.75
2023-03-12T15:53:27.795Z,40.50
2023-03-12T15:56:02.842Z,41.20
2023-03-12T15:58:40.114Z,40.15
2023-03-12T16:01:10.339Z,39.95
2023-03-12T16:03:38.650Z,40.40
2023-03-12T16:06:11.181Z,40.75
2023-03-12T16:08:44.387Z,40.40
2023-03-12T16:11:27.102Z,40.77
2023-03-12T16:14:04.799Z,41.63
2023-03-12T16:16:31.836Z,42.38
2023-03-12T16:19:01.745Z,42.75
2023-03-12T16:21:28.920Z,42.94
2023-03-12T16:23:59.036Z,42.84
2023-03-12T16:26:26.110Z,43.44
2023-03-12T16:28:53.201Z,43.09
2023-03-12T16:31:22.509Z,43.44
2023-03-12T16:33:52.092Z,43.87
2023-03-12T16:36:19.566Z,44.41
2023-03-12T16:38:47.126Z,44.21
2023-03-12T16:41:19.411Z,45.18
2023-03-12T16:43:50.230Z,58.55
2023-03-12T16:46:19.957Z,46.09
2023-03-12T16:48:52.900Z,45.77
2023-03-12T16:51:20.137Z,45.74
2023-03-12T16:53:51.056Z,45.52
2023-03-12T16:56:45.825Z,46.64
2023-03-12T16:59:16.400Z,47.23
2023-03-12T17:01:43.375Z,46.62
2023-03-12T17:04:11.445Z,47.76
2023-03-12T17:06:40.626Z,47.82
2023-03-12T17:09:08.684Z,48.60
2023-03-12T17:11:38.069Z,47.91
2023-03-12T17:14:20.099Z,48.62
2023-03-12T17:16:47.181Z,48.24
2023-03-12T17:19:14.563Z,48.08
2023-03-12T17:21:41.716Z,48.17
2023-03-12T17:24:10.350Z,48.60
2023-03-12T17:26:37.474Z,48.24
2023-03-12T17:29:04.345Z,48.28
2023-03-12T17:31:31.293Z,48.23
2023-03-12T17:33:58.355Z,49.08
2023-03-12T17:36:26.156Z,49.54
2023-03-12T17:38:53.204Z,48.99
2023-03-12T17:41:26.442Z,48.71
2023-03-12T17:43:55.105Z,48.76
2023-03-12T17:46:22.311Z,48.28
2023-03-12T17:48:49.342Z,49.08
2023-03-12T17:51:16.559Z,49.19
2023-03-12T17:53:43.506Z,49.37
2023-03-12T17:56:12.783Z,49.63
2023-03-12T17:58:39.857Z,48.85
2023-03-12T18:01:07.112Z,50.59
2023-03-12T18:03:34.138Z,51.52
2023-03-12T18:06:01.571Z,50.49
2023-03-12T18:08:28.578Z,51.19
2023-03-12T18:10:55.704Z,50.44
2023-03-12T18:13:22.900Z,51.94
2023-03-12T18:15:54.949Z,51.49
2023-03-12T18:18:23.338Z,52.11
2023-03-12T18:20:50.870Z,52.77
2023-03-12T18:23:20.110Z,52.39
2023-03-12T18:25:47.217Z,53.65
2023-03-12T18:28:15.711Z,54.93
2023-03-12T18:30:45.594Z,56.25
2023-03-12T18:33:14.290Z,57.49
2023-03-12T18:35:41.283Z,55.94
2023-03-12T18:38:08.139Z,56.35
2023-03-12T18:40:35.280Z,58.08
2023-03-12T18:43:03.368Z,60.18
2023-03-12T18:45:30.260Z,60.67
2023-03-12T18:47:57.561Z,58.67
2023-03-12T18:50:24.836Z,59.47
2023-03-12T18:52:53.100Z,60.78
2023-03-12T18:55:21.177Z,58.60
2023-03-12T18:57:49.422Z,58.34
2023-03-12T19:00:22.400Z,57.79
2023-03-12T19:02:49.529Z,59.04
2023-03-12T19:05:17.544Z,60.89
2023-03-12T19:07:44.689Z,59.96
2023-03-12T19:10:12.866Z,60.52
2023-03-12T19:12:51.645Z,60.65
2023-03-12T19:15:21.437Z,60.76
2023-03-12T19:17:48.537Z,58.51
2023-03-12T19:20:15.809Z,57.90
2023-03-12T19:22:43.777Z,60.64
2023-03-12T19:25:11.018Z,60.53
2023-03-12T19:27:38.041Z,58.81
2023-03-12T19:30:06.330Z,60.18
2023-03-12T19:32:43.390Z,60.70
2023-03-12T19:35:12.861Z,60.55
2023-03-12T19:37:40.060Z,61.21
2023-03-12T19:40:07.779Z,61.05
2023-03-12T19:42:34.723Z,61.29
2023-03-12T19:45:02.184Z,61.55
2023-03-12T19:47:29.602Z,62.29
2023-03-12T19:49:56.625Z,61.99
2023-03-12T19:52:24.274Z,61.98
2023-03-12T19:55:03.264Z,61.42
2023-03-12T19:57:31.327Z,61.80
2023-03-12T20:00:01.159Z,61.13
2023-03-12T20:02:28.420Z,61.17
2023-03-12T20:04:55.794Z,61.96
2023-03-12T20:07:23.412Z,62.06
2023-03-12T20:09:50.565Z,62.86
2023-03-12T20:12:17.632Z,63.90
2023-03-12T20:14:46.349Z,62.31
2023-03-12T20:17:32.648Z,64.15
2023-03-12T20:20:02.598Z,64.38
2023-03-12T20:22:29.611Z,64.67
2023-03-12T20:24:56.476Z,66.19
2023-03-12T20:27:23.813Z,66.64
2023-03-12T20:29:51.066Z,66.03
2023-03-12T20:32:20.893Z,65.29
2023-03-12T20:34:47.985Z,65.25
2023-03-12T20:37:15.957Z,64.05
2023-03-12T20:39:43.077Z,65.03
2023-03-12T20:42:09.904Z,62.32
2023-03-12T20:44:36.740Z,64.32
2023-03-12T20:47:03.919Z,64.08
2023-03-12T20:49:30.728Z,64.99
2023-03-12T20:51:57.594Z,64.43
2023-03-12T20:54:24.582Z,63.52
2023-03-12T20:56:51.550Z,63.96
2023-03-12T20:59:18.421Z,64.90
2023-03-12T21:01:45.461Z,65.25
2023-03-12T21:04:14.876Z,65.63
2023-03-12T21:06:43.080Z,64.29
2023-03-12T21:09:10.090Z,64.19
2023-03-12T21:11:39.211Z,65.38
2023-03-12T21:14:06.663Z,64.13
2023-03-12T21:16:33.763Z,64.54
2023-03-12T21:19:00.819Z,64.20
2023-03-12T21:21:28.432Z,64.47
2023-03-12T21:23:55.575Z,64.36
2023-03-12T21:26:22.495Z,66.58
2023-03-12T21:28:49.665Z,66.25
2023-03-12T21:31:17.793Z,66.50
2023-03-12T21:33:44.986Z,66.56
2023-03-12T21:36:14.008Z,66.61
2023-03-12T21:38:45.129Z,66.07
2023-03-12T21:41:15.270Z,66.99
2023-03-12T21:43:43.452Z,67.37
2023-03-12T21:46:13.088Z,68.07
2023-03-12T21:48:42.097Z,68.17
2023-03-12T21:51:11.343Z,67.72
2023-03-12T21:53:39.381Z,68.29
2023-03-12T21:56:08.300Z,67.36
2023-03-12T21:58:36.270Z,68.69
2023-03-12T22:01:06.270Z,68.87
2023-03-12T22:03:33.813Z,68.80
2023-03-12T22:06:00.890Z,66.48
2023-03-12T22:08:27.779Z,66.96
2023-03-12T22:10:54.782Z,67.19
2023-03-12T22:13:24.084Z,67.51
2023-03-12T22:16:07.061Z,68.01
2023-03-12T22:18:41.278Z,67.41
2023-03-12T22:21:17.082Z,67.89
2023-03-12T22:23:48.360Z,68.59
2023-03-12T22:26:15.763Z,67.15
2023-03-12T22:28:43.155Z,68.10
2023-03-12T22:31:10.808Z,67.48
2023-03-12T22:33:37.856Z,67.85
2023-03-12T22:36:07.718Z,68.83
2023-03-12T22:38:37.007Z,68.11
2023-03-12T22:41:13.087Z,67.81
2023-03-12T22:43:50.956Z,67.16
2023-03-12T22:46:19.553Z,67.77
2023-03-12T22:48:53.435Z,67.82
2023-03-12T22:51:22.697Z,67.61
2023-03-12T22:53:50.141Z,67.25
2023-03-12T22:56:17.023Z,67.41
2023-03-12T22:58:44.473Z,67.53
2023-03-12T23:01:14.287Z,67.23
2023-03-12T23:03:43.146Z,67.80
2023-03-12T23:06:13.094Z,67.25
2023-03-12T23:08:40.533Z,67.36
2023-03-12T23:11:08.800Z,67.00
2023-03-12T23:13:38.347Z,67.03
2023-03-12T23:16:26.167Z,68.64
2023-03-12T23:18:54.283Z,68.65
2023-03-12T23:21:24.836Z,68.14
2023-03-12T23:23:52.760Z,67.76
2023-03-12T23:26:29.174Z,68.09
2023-03-12T23:28:57.076Z,68.36
2023-03-12T23:31:25.070Z,68.42
2023-03-12T23:33:52.147Z,68.38
2023-03-12T23:36:21.822Z,68.96
2023-03-12T23:38:50.232Z,67.75
2023-03-12T23:41:22.790Z,68.55
2023-03-12T23:43:50.762Z,69.14
2023-03-12T23:46:18.464Z,68.98
2023-03-12T23:48:46.122Z,68.68
2023-03-12T23:51:15.868Z,67.15
2023-03-12T23:53:45.649Z,67.73
2023-03-12T23:56:16.838Z,69.15
2023-03-12T23:58:44.678Z,69.21
